sensor_id;sensor_type;location;lat;lon;timestamp;P1;durP1;ratioP1;P2;durP2;ratioP2
47790;SDS011;33547;49.044;1.156;2022-11-15T00:00:28;1.80;;;1.70;;
47790;SDS011;33547;49.044;1.156;2022-11-15T00:02:54;1.70;;;1.60;;
47790;SDS011;33547;49.044;1.156;2022-11-15T00:05:20;1.50;;;1.40;;
47790;SDS011;33547;49.044;1.156;2022-11-15T00:07:46;1.83;;;1.55;;
47790;SDS011;33547;49.044;1.156;2022-11-15T00:10:12;2.10;;;1.52;;
47790;SDS011;33547;49.044;1.156;2022-11-15T00:12:38;1.90;;;1.48;;
47790;SDS011;33547;49.044;1.156;2022-11-15T00:15:04;1.40;;;1.30;;
47790;SDS011;33547;49.044;1.156;2022-11-15T00:17:30;1.70;;;1.60;;
47790;SDS011;33547;49.044;1.156;2022-11-15T00:19:56;1.50;;;1.40;;
47790;SDS011;33547;49.044;1.156;2022-11-15T00:22:22;1.85;;;1.55;;
47790;SDS011;33547;49.044;1.156;2022-11-15T00:24:48;1.55;;;1.45;;
47790;SDS011;33547;49.044;1.156;2022-11-15T00:27:13;1.50;;;1.40;;
47790;SDS011;33547;49.044;1.156;2022-11-15T00:29:39;1.33;;;1.23;;
47790;SDS011;33547;49.044;1.156;2022-11-15T00:32:08;1.60;;;1.15;;
47790;SDS011;33547;49.044;1.156;2022-11-15T00:34:35;1.75;;;1.42;;
47790;SDS011;33547;49.044;1.156;2022-11-15T00:37:01;1.65;;;1.55;;
47790;SDS011;33547;49.044;1.156;2022-11-15T00:39:27;1.80;;;1.70;;
47790;SDS011;33547;49.044;1.156;2022-11-15T00:41:52;1.55;;;1.45;;
47790;SDS011;33547;49.044;1.156;2022-11-15T00:44:18;1.77;;;1.67;;
47790;SDS011;33547;49.044;1.156;2022-11-15T00:46:44;1.67;;;1.52;;
47790;SDS011;33547;49.044;1.156;2022-11-15T00:49:10;2.55;;;1.60;;
47790;SDS011;33547;49.044;1.156;2022-11-15T00:51:35;1.20;;;1.10;;
47790;SDS011;33547;49.044;1.156;2022-11-15T00:54:01;1.60;;;1.50;;
47790;SDS011;33547;49.044;1.156;2022-11-15T00:56:27;1.70;;;1.25;;
47790;SDS011;33547;49.044;1.156;2022-11-15T00:58:53;1.27;;;1.17;;
47790;SDS011;33547;49.044;1.156;2022-11-15T01:01:19;1.20;;;1.10;;
47790;SDS011;33547;49.044;1.156;2022-11-15T01:03:46;1.48;;;1.38;;
47790;SDS011;33547;49.044;1.156;2022-11-15T01:06:12;1.20;;;1.10;;
47790;SDS011;33547;49.044;1.156;2022-11-15T01:08:38;1.63;;;1.52;;
47790;SDS011;33547;49.044;1.156;2022-11-15T01:11:06;1.73;;;1.63;;
47790;SDS011;33547;49.044;1.156;2022-11-15T01:13:35;1.48;;;1.38;;
47790;SDS011;33547;49.044;1.156;2022-11-15T01:16:06;1.20;;;1.10;;
47790;SDS011;33547;49.044;1.156;2022-11-15T01:18:42;1.90;;;1.48;;
47790;SDS011;33547;49.044;1.156;2022-11-15T01:21:09;1.50;;;1.40;;
47790;SDS011;33547;49.044;1.156;2022-11-15T01:23:39;1.42;;;1.33;;
47790;SDS011;33547;49.044;1.156;2022-11-15T01:26:06;2.58;;;1.30;;
47790;SDS011;33547;49.044;1.156;2022-11-15T01:28:36;1.58;;;1.40;;
47790;SDS011;33547;49.044;1.156;2022-11-15T01:31:06;1.42;;;1.33;;
47790;SDS011;33547;49.044;1.156;2022-11-15T01:33:37;2.25;;;1.30;;
47790;SDS011;33547;49.044;1.156;2022-11-15T01:36:06;1.50;;;1.40;;
47790;SDS011;33547;49.044;1.156;2022-11-15T01:38:35;1.35;;;1.25;;
47790;SDS011;33547;49.044;1.156;2022-11-15T01:41:02;2.33;;;1.65;;
47790;SDS011;33547;49.044;1.156;2022-11-15T01:43:36;1.80;;;1.40;;
47790;SDS011;33547;49.044;1.156;2022-11-15T01:46:44;1.30;;;1.20;;
47790;SDS011;33547;49.044;1.156;2022-11-15T01:49:01;1.58;;;1.30;;
47790;SDS011;33547;49.044;1.156;2022-11-15T01:51:34;2.97;;;1.20;;
47790;SDS011;33547;49.044;1.156;2022-11-15T01:54:02;1.60;;;1.50;;
47790;SDS011;33547;49.044;1.156;2022-11-15T01:56:36;2.45;;;1.48;;
47790;SDS011;33547;49.044;1.156;2022-11-15T01:59:11;1.65;;;1.40;;
47790;SDS011;33547;49.044;1.156;2022-11-15T02:01:37;2.00;;;1.25;;
47790;SDS011;33547;49.044;1.156;2022-11-15T02:04:05;1.50;;;1.40;;
47790;SDS011;33547;49.044;1.156;2022-11-15T02:06:46;1.10;;;1.10;;
47790;SDS011;33547;49.044;1.156;2022-11-15T02:09:13;1.48;;;1.20;;
47790;SDS011;33547;49.044;1.156;2022-11-15T02:11:40;2.25;;;1.45;;
47790;SDS011;33547;49.044;1.156;2022-11-15T02:14:06;1.98;;;1.17;;
47790;SDS011;33547;49.044;1.156;2022-11-15T02:26:42;1.20;;;1.15;;
47790;SDS011;33547;49.044;1.156;2022-11-15T02:29:07;1.10;;;1.10;;
47790;SDS011;33547;49.044;1.156;2022-11-15T02:32:29;1.77;;;1.00;;
47790;SDS011;33547;49.044;1.156;2022-11-15T02:35:13;1.10;;;0.93;;
47790;SDS011;33547;49.044;1.156;2022-11-15T02:40:54;1.40;;;1.30;;
47790;SDS011;33547;49.044;1.156;2022-11-15T02:43:29;1.33;;;1.23;;
47790;SDS011;33547;49.044;1.156;2022-11-15T02:46:27;1.10;;;1.00;;
47790;SDS011;33547;49.044;1.156;2022-11-15T02:49:35;1.55;;;1.45;;
47790;SDS011;33547;49.044;1.156;2022-11-15T02:52:02;1.08;;;1.08;;
47790;SDS011;33547;49.044;1.156;2022-11-15T02:54:29;1.67;;;1.58;;
47790;SDS011;33547;49.044;1.156;2022-11-15T02:57:01;1.65;;;1.25;;
47790;SDS011;33547;49.044;1.156;2022-11-15T03:11:50;1.48;;;1.17;;
47790;SDS011;33547;49.044;1.156;2022-11-15T03:17:16;2.25;;;1.15;;
47790;SDS011;33547;49.044;1.156;2022-11-15T03:19:58;1.90;;;1.05;;
47790;SDS011;33547;49.044;1.156;2022-11-15T03:22:27;1.40;;;1.30;;
47790;SDS011;33547;49.044;1.156;2022-11-15T03:25:00;2.15;;;1.13;;
47790;SDS011;33547;49.044;1.156;2022-11-15T03:27:50;2.20;;;1.23;;
47790;SDS011;33547;49.044;1.156;2022-11-15T03:30:19;2.25;;;1.30;;
47790;SDS011;33547;49.044;1.156;2022-11-15T03:32:52;1.63;;;1.35;;
47790;SDS011;33547;49.044;1.156;2022-11-15T03:35:22;0.88;;;0.88;;
47790;SDS011;33547;49.044;1.156;2022-11-15T03:41:00;1.42;;;0.98;;
47790;SDS011;33547;49.044;1.156;2022-11-15T03:43:38;1.52;;;0.90;;
47790;SDS011;33547;49.044;1.156;2022-11-15T03:46:25;1.55;;;1.15;;
47790;SDS011;33547;49.044;1.156;2022-11-15T03:49:04;2.03;;;1.10;;
47790;SDS011;33547;49.044;1.156;2022-11-15T03:51:39;2.00;;;1.10;;
47790;SDS011;33547;49.044;1.156;2022-11-15T03:54:05;1.60;;;1.30;;
47790;SDS011;33547;49.044;1.156;2022-11-15T03:56:31;1.90;;;1.52;;
47790;SDS011;33547;49.044;1.156;2022-11-15T03:58:57;1.77;;;1.10;;
47790;SDS011;33547;49.044;1.156;2022-11-15T04:01:23;1.10;;;1.10;;
47790;SDS011;33547;49.044;1.156;2022-11-15T04:03:49;1.00;;;1.00;;
47790;SDS011;33547;49.044;1.156;2022-11-15T04:06:15;1.83;;;1.20;;
47790;SDS011;33547;49.044;1.156;2022-11-15T04:08:40;1.30;;;1.20;;
47790;SDS011;33547;49.044;1.156;2022-11-15T04:11:06;2.67;;;1.00;;
47790;SDS011;33547;49.044;1.156;2022-11-15T04:13:32;1.55;;;1.08;;
47790;SDS011;33547;49.044;1.156;2022-11-15T04:15:58;1.27;;;0.90;;
47790;SDS011;33547;49.044;1.156;2022-11-15T04:18:24;1.17;;;1.10;;
47790;SDS011;33547;49.044;1.156;2022-11-15T04:20:50;2.40;;;1.20;;
47790;SDS011;33547;49.044;1.156;2022-11-15T04:23:34;1.65;;;0.80;;
47790;SDS011;33547;49.044;1.156;2022-11-15T04:26:19;1.30;;;1.10;;
47790;SDS011;33547;49.044;1.156;2022-11-15T04:28:47;1.33;;;1.23;;
47790;SDS011;33547;49.044;1.156;2022-11-15T04:31:32;2.65;;;1.10;;
47790;SDS011;33547;49.044;1.156;2022-11-15T04:33:57;1.38;;;1.00;;
47790;SDS011;33547;49.044;1.156;2022-11-15T04:36:24;1.58;;;1.38;;
47790;SDS011;33547;49.044;1.156;2022-11-15T04:39:08;2.88;;;1.20;;
47790;SDS011;33547;49.044;1.156;2022-11-15T04:41:34;2.45;;;1.10;;
47790;SDS011;33547;49.044;1.156;2022-11-15T04:44:00;1.70;;;1.15;;
47790;SDS011;33547;49.044;1.156;2022-11-15T04:46:26;2.47;;;0.93;;
47790;SDS011;33547;49.044;1.156;2022-11-15T04:48:52;1.73;;;0.95;;
47790;SDS011;33547;49.044;1.156;2022-11-15T04:51:19;1.20;;;1.08;;
47790;SDS011;33547;49.044;1.156;2022-11-15T04:53:45;2.17;;;1.02;;
47790;SDS011;33547;49.044;1.156;2022-11-15T04:56:10;1.10;;;1.00;;
47790;SDS011;33547;49.044;1.156;2022-11-15T04:58:37;2.40;;;1.60;;
47790;SDS011;33547;49.044;1.156;2022-11-15T05:01:09;1.60;;;1.08;;
47790;SDS011;33547;49.044;1.156;2022-11-15T05:03:39;1.23;;;1.05;;
47790;SDS011;33547;49.044;1.156;2022-11-15T05:06:26;1.42;;;0.90;;
47790;SDS011;33547;49.044;1.156;2022-11-15T05:08:52;3.15;;;1.15;;
47790;SDS011;33547;49.044;1.156;2022-11-15T05:11:19;1.70;;;1.00;;
47790;SDS011;33547;49.044;1.156;2022-11-15T05:13:45;1.20;;;0.82;;
47790;SDS011;33547;49.044;1.156;2022-11-15T05:16:11;3.05;;;0.82;;
47790;SDS011;33547;49.044;1.156;2022-11-15T05:18:37;2.30;;;1.33;;
47790;SDS011;33547;49.044;1.156;2022-11-15T05:21:07;4.20;;;1.23;;
47790;SDS011;33547;49.044;1.156;2022-11-15T05:23:35;0.98;;;0.90;;
47790;SDS011;33547;49.044;1.156;2022-11-15T05:26:02;5.78;;;1.52;;
47790;SDS011;33547;49.044;1.156;2022-11-15T05:28:30;1.65;;;0.93;;
47790;SDS011;33547;49.044;1.156;2022-11-15T05:31:07;1.33;;;1.15;;
47790;SDS011;33547;49.044;1.156;2022-11-15T05:33:35;1.15;;;0.80;;
47790;SDS011;33547;49.044;1.156;2022-11-15T05:36:04;1.65;;;0.85;;
47790;SDS011;33547;49.044;1.156;2022-11-15T05:38:54;3.22;;;1.00;;
47790;SDS011;33547;49.044;1.156;2022-11-15T05:41:21;1.08;;;0.90;;
47790;SDS011;33547;49.044;1.156;2022-11-15T05:44:09;1.35;;;1.02;;
47790;SDS011;33547;49.044;1.156;2022-11-15T05:46:41;1.27;;;0.93;;
47790;SDS011;33547;49.044;1.156;2022-11-15T05:49:09;1.15;;;0.80;;
47790;SDS011;33547;49.044;1.156;2022-11-15T05:51:39;1.67;;;0.98;;
47790;SDS011;33547;49.044;1.156;2022-11-15T05:54:06;2.55;;;1.20;;
47790;SDS011;33547;49.044;1.156;2022-11-15T05:56:32;1.90;;;1.00;;
47790;SDS011;33547;49.044;1.156;2022-11-15T05:58:58;5.55;;;1.27;;
47790;SDS011;33547;49.044;1.156;2022-11-15T06:01:24;1.05;;;0.88;;
47790;SDS011;33547;49.044;1.156;2022-11-15T06:03:51;1.80;;;0.90;;
47790;SDS011;33547;49.044;1.156;2022-11-15T06:06:17;1.10;;;1.00;;
47790;SDS011;33547;49.044;1.156;2022-11-15T06:08:43;2.03;;;0.90;;
47790;SDS011;33547;49.044;1.156;2022-11-15T06:11:09;1.17;;;0.70;;
47790;SDS011;33547;49.044;1.156;2022-11-15T06:13:34;2.05;;;1.30;;
47790;SDS011;33547;49.044;1.156;2022-11-15T06:16:00;1.00;;;0.82;;
47790;SDS011;33547;49.044;1.156;2022-11-15T06:18:27;1.25;;;0.90;;
47790;SDS011;33547;49.044;1.156;2022-11-15T06:20:52;2.17;;;0.80;;
47790;SDS011;33547;49.044;1.156;2022-11-15T06:23:18;2.65;;;1.00;;
47790;SDS011;33547;49.044;1.156;2022-11-15T06:25:44;4.97;;;1.02;;
47790;SDS011;33547;49.044;1.156;2022-11-15T06:28:10;6.97;;;1.20;;
47790;SDS011;33547;49.044;1.156;2022-11-15T06:30:36;8.93;;;1.38;;
47790;SDS011;33547;49.044;1.156;2022-11-15T06:33:02;3.55;;;1.10;;
47790;SDS011;33547;49.044;1.156;2022-11-15T06:35:30;5.47;;;1.30;;
47790;SDS011;33547;49.044;1.156;2022-11-15T06:38:05;4.60;;;1.13;;
47790;SDS011;33547;49.044;1.156;2022-11-15T06:40:34;1.98;;;1.20;;
47790;SDS011;33547;49.044;1.156;2022-11-15T06:43:02;2.15;;;1.08;;
47790;SDS011;33547;49.044;1.156;2022-11-15T06:45:29;3.30;;;1.20;;
47790;SDS011;33547;49.044;1.156;2022-11-15T06:47:55;2.47;;;0.90;;
47790;SDS011;33547;49.044;1.156;2022-11-15T06:50:21;2.30;;;1.10;;
47790;SDS011;33547;49.044;1.156;2022-11-15T06:52:48;3.63;;;1.50;;
47790;SDS011;33547;49.044;1.156;2022-11-15T06:55:14;1.33;;;0.73;;
47790;SDS011;33547;49.044;1.156;2022-11-15T06:57:46;1.83;;;1.02;;
47790;SDS011;33547;49.044;1.156;2022-11-15T07:00:18;2.47;;;1.25;;
47790;SDS011;33547;49.044;1.156;2022-11-15T07:02:46;2.05;;;0.80;;
47790;SDS011;33547;49.044;1.156;2022-11-15T07:05:12;2.15;;;1.38;;
47790;SDS011;33547;49.044;1.156;2022-11-15T07:07:39;2.22;;;0.90;;
47790;SDS011;33547;49.044;1.156;2022-11-15T07:10:05;4.72;;;0.90;;
47790;SDS011;33547;49.044;1.156;2022-11-15T07:12:32;9.15;;;1.30;;
47790;SDS011;33547;49.044;1.156;2022-11-15T07:14:58;6.07;;;1.60;;
47790;SDS011;33547;49.044;1.156;2022-11-15T07:17:24;7.55;;;1.17;;
47790;SDS011;33547;49.044;1.156;2022-11-15T07:19:50;2.38;;;0.73;;
47790;SDS011;33547;49.044;1.156;2022-11-15T07:22:15;8.05;;;1.00;;
47790;SDS011;33547;49.044;1.156;2022-11-15T07:24:41;2.20;;;1.02;;
47790;SDS011;33547;49.044;1.156;2022-11-15T07:27:07;2.92;;;1.63;;
47790;SDS011;33547;49.044;1.156;2022-11-15T07:29:36;3.53;;;0.98;;
47790;SDS011;33547;49.044;1.156;2022-11-15T07:32:01;1.95;;;1.13;;
47790;SDS011;33547;49.044;1.156;2022-11-15T07:34:28;5.55;;;1.20;;
47790;SDS011;33547;49.044;1.156;2022-11-15T07:36:53;2.38;;;0.77;;
47790;SDS011;33547;49.044;1.156;2022-11-15T07:39:19;2.22;;;0.90;;
47790;SDS011;33547;49.044;1.156;2022-11-15T07:41:45;4.13;;;1.00;;
47790;SDS011;33547;49.044;1.156;2022-11-15T07:44:13;2.20;;;0.98;;
47790;SDS011;33547;49.044;1.156;2022-11-15T07:46:38;1.23;;;0.98;;
47790;SDS011;33547;49.044;1.156;2022-11-15T07:49:04;3.92;;;0.85;;
47790;SDS011;33547;49.044;1.156;2022-11-15T07:51:30;4.05;;;1.20;;
47790;SDS011;33547;49.044;1.156;2022-11-15T07:53:56;2.25;;;0.80;;
47790;SDS011;33547;49.044;1.156;2022-11-15T07:56:22;1.60;;;1.00;;
47790;SDS011;33547;49.044;1.156;2022-11-15T07:58:47;2.70;;;1.25;;
47790;SDS011;33547;49.044;1.156;2022-11-15T08:01:15;3.58;;;1.27;;
47790;SDS011;33547;49.044;1.156;2022-11-15T08:03:41;3.38;;;0.98;;
47790;SDS011;33547;49.044;1.156;2022-11-15T08:06:06;2.13;;;1.02;;
47790;SDS011;33547;49.044;1.156;2022-11-15T08:08:32;1.00;;;0.90;;
47790;SDS011;33547;49.044;1.156;2022-11-15T08:11:01;1.98;;;0.88;;
47790;SDS011;33547;49.044;1.156;2022-11-15T08:13:27;1.83;;;0.90;;
47790;SDS011;33547;49.044;1.156;2022-11-15T08:15:57;2.58;;;1.05;;
47790;SDS011;33547;49.044;1.156;2022-11-15T08:18:24;3.17;;;0.93;;
47790;SDS011;33547;49.044;1.156;2022-11-15T08:20:59;1.40;;;0.90;;
47790;SDS011;33547;49.044;1.156;2022-11-15T08:23:26;1.20;;;0.80;;
47790;SDS011;33547;49.044;1.156;2022-11-15T08:25:52;1.90;;;1.05;;
47790;SDS011;33547;49.044;1.156;2022-11-15T08:28:27;1.35;;;0.60;;
47790;SDS011;33547;49.044;1.156;2022-11-15T08:30:56;2.83;;;1.10;;
47790;SDS011;33547;49.044;1.156;2022-11-15T08:33:22;1.95;;;0.90;;
47790;SDS011;33547;49.044;1.156;2022-11-15T08:35:48;1.10;;;0.98;;
47790;SDS011;33547;49.044;1.156;2022-11-15T08:38:14;1.88;;;0.93;;
47790;SDS011;33547;49.044;1.156;2022-11-15T08:40:40;2.05;;;1.13;;
47790;SDS011;33547;49.044;1.156;2022-11-15T08:43:06;0.88;;;0.75;;
47790;SDS011;33547;49.044;1.156;2022-11-15T08:45:33;1.23;;;0.85;;
47790;SDS011;33547;49.044;1.156;2022-11-15T08:48:01;1.13;;;1.02;;
47790;SDS011;33547;49.044;1.156;2022-11-15T08:50:28;1.23;;;0.80;;
47790;SDS011;33547;49.044;1.156;2022-11-15T08:52:54;0.82;;;0.73;;
47790;SDS011;33547;49.044;1.156;2022-11-15T08:55:19;3.13;;;1.00;;
47790;SDS011;33547;49.044;1.156;2022-11-15T08:57:45;2.05;;;0.90;;
47790;SDS011;33547;49.044;1.156;2022-11-15T09:00:11;1.92;;;0.98;;
47790;SDS011;33547;49.044;1.156;2022-11-15T09:02:38;0.80;;;0.70;;
47790;SDS011;33547;49.044;1.156;2022-11-15T09:05:05;0.80;;;0.80;;
47790;SDS011;33547;49.044;1.156;2022-11-15T09:07:32;3.35;;;1.10;;
47790;SDS011;33547;49.044;1.156;2022-11-15T09:09:57;1.83;;;0.90;;
47790;SDS011;33547;49.044;1.156;2022-11-15T09:12:23;2.00;;;0.80;;
47790;SDS011;33547;49.044;1.156;2022-11-15T09:14:49;2.15;;;1.00;;
47790;SDS011;33547;49.044;1.156;2022-11-15T09:17:15;1.75;;;1.05;;
47790;SDS011;33547;49.044;1.156;2022-11-15T09:19:41;1.52;;;0.93;;
47790;SDS011;33547;49.044;1.156;2022-11-15T09:22:07;1.60;;;0.90;;
47790;SDS011;33547;49.044;1.156;2022-11-15T09:24:33;1.35;;;1.00;;
47790;SDS011;33547;49.044;1.156;2022-11-15T09:27:00;1.58;;;1.00;;
47790;SDS011;33547;49.044;1.156;2022-11-15T09:29:26;1.50;;;0.82;;
47790;SDS011;33547;49.044;1.156;2022-11-15T09:31:52;1.05;;;0.75;;
47790;SDS011;33547;49.044;1.156;2022-11-15T09:34:18;1.27;;;0.95;;
47790;SDS011;33547;49.044;1.156;2022-11-15T09:36:44;2.10;;;0.98;;
47790;SDS011;33547;49.044;1.156;2022-11-15T09:39:10;1.50;;;0.95;;
47790;SDS011;33547;49.044;1.156;2022-11-15T09:41:39;2.05;;;1.00;;
47790;SDS011;33547;49.044;1.156;2022-11-15T09:47:41;1.80;;;1.15;;
47790;SDS011;33547;49.044;1.156;2022-11-15T09:50:36;0.90;;;0.85;;
47790;SDS011;33547;49.044;1.156;2022-11-15T09:53:10;1.58;;;0.93;;
47790;SDS011;33547;49.044;1.156;2022-11-15T09:55:49;4.95;;;0.95;;
47790;SDS011;33547;49.044;1.156;2022-11-15T10:04:32;2.67;;;1.23;;
47790;SDS011;33547;49.044;1.156;2022-11-15T10:07:06;1.20;;;0.93;;
47790;SDS011;33547;49.044;1.156;2022-11-15T10:12:17;1.55;;;0.90;;
47790;SDS011;33547;49.044;1.156;2022-11-15T10:14:45;1.70;;;0.70;;
47790;SDS011;33547;49.044;1.156;2022-11-15T10:27:34;0.75;;;0.60;;
47790;SDS011;33547;49.044;1.156;2022-11-15T10:30:00;0.88;;;0.80;;
47790;SDS011;33547;49.044;1.156;2022-11-15T10:32:29;1.70;;;0.80;;
47790;SDS011;33547;49.044;1.156;2022-11-15T10:34:58;1.48;;;0.60;;
47790;SDS011;33547;49.044;1.156;2022-11-15T10:37:27;0.93;;;0.85;;
47790;SDS011;33547;49.044;1.156;2022-11-15T10:40:03;1.77;;;1.20;;
47790;SDS011;33547;49.044;1.156;2022-11-15T10:42:31;1.58;;;0.70;;
47790;SDS011;33547;49.044;1.156;2022-11-15T10:44:57;1.88;;;0.90;;
47790;SDS011;33547;49.044;1.156;2022-11-15T10:47:27;1.75;;;0.90;;
47790;SDS011;33547;49.044;1.156;2022-11-15T10:52:25;0.55;;;0.55;;
47790;SDS011;33547;49.044;1.156;2022-11-15T10:57:47;1.38;;;0.77;;
47790;SDS011;33547;49.044;1.156;2022-11-15T11:02:47;1.27;;;0.75;;
47790;SDS011;33547;49.044;1.156;2022-11-15T11:05:29;0.80;;;0.80;;
47790;SDS011;33547;49.044;1.156;2022-11-15T11:08:04;0.95;;;0.77;;
47790;SDS011;33547;49.044;1.156;2022-11-15T11:10:56;1.45;;;1.10;;
47790;SDS011;33547;49.044;1.156;2022-11-15T11:18:45;3.15;;;1.35;;
47790;SDS011;33547;49.044;1.156;2022-11-15T11:25:18;3.78;;;1.88;;
47790;SDS011;33547;49.044;1.156;2022-11-15T11:31:43;2.60;;;1.40;;
47790;SDS011;33547;49.044;1.156;2022-11-15T11:37:00;2.30;;;1.70;;
47790;SDS011;33547;49.044;1.156;2022-11-15T11:39:57;5.30;;;1.98;;
47790;SDS011;33547;49.044;1.156;2022-11-15T11:42:54;2.60;;;1.65;;
47790;SDS011;33547;49.044;1.156;2022-11-15T11:49:10;3.47;;;1.52;;
47790;SDS011;33547;49.044;1.156;2022-11-15T11:51:49;2.47;;;1.60;;
47790;SDS011;33547;49.044;1.156;2022-11-15T12:00:51;2.10;;;1.25;;
47790;SDS011;33547;49.044;1.156;2022-11-15T12:06:19;1.55;;;1.30;;
47790;SDS011;33547;49.044;1.156;2022-11-15T12:09:00;2.35;;;1.40;;
47790;SDS011;33547;49.044;1.156;2022-11-15T12:14:31;1.42;;;1.30;;
47790;SDS011;33547;49.044;1.156;2022-11-15T12:17:29;2.10;;;1.40;;
47790;SDS011;33547;49.044;1.156;2022-11-15T12:19:57;1.63;;;1.30;;
47790;SDS011;33547;49.044;1.156;2022-11-15T12:22:41;2.13;;;1.25;;
47790;SDS011;33547;49.044;1.156;2022-11-15T12:28:42;1.33;;;1.23;;
47790;SDS011;33547;49.044;1.156;2022-11-15T12:34:01;2.85;;;1.60;;
47790;SDS011;33547;49.044;1.156;2022-11-15T12:36:48;1.92;;;1.50;;
47790;SDS011;33547;49.044;1.156;2022-11-15T12:39:15;2.28;;;1.33;;
47790;SDS011;33547;49.044;1.156;2022-11-15T12:49:47;2.67;;;1.30;;
47790;SDS011;33547;49.044;1.156;2022-11-15T12:52:14;1.67;;;0.90;;
47790;SDS011;33547;49.044;1.156;2022-11-15T12:59:51;1.88;;;1.23;;
47790;SDS011;33547;49.044;1.156;2022-11-15T13:02:40;1.20;;;1.00;;
47790;SDS011;33547;49.044;1.156;2022-11-15T13:17:42;1.98;;;1.25;;
47790;SDS011;33547;49.044;1.156;2022-11-15T13:28:52;1.10;;;0.93;;
47790;SDS011;33547;49.044;1.156;2022-11-15T13:33:54;1.55;;;0.95;;
47790;SDS011;33547;49.044;1.156;2022-11-15T13:36:39;0.90;;;0.90;;
47790;SDS011;33547;49.044;1.156;2022-11-15T13:39:06;1.15;;;0.90;;
47790;SDS011;33547;49.044;1.156;2022-11-15T13:44:28;1.30;;;1.10;;
47790;SDS011;33547;49.044;1.156;2022-11-15T13:47:02;1.67;;;1.00;;
47790;SDS011;33547;49.044;1.156;2022-11-15T13:49:38;0.95;;;0.82;;
47790;SDS011;33547;49.044;1.156;2022-11-15T13:52:05;1.50;;;0.93;;
47790;SDS011;33547;49.044;1.156;2022-11-15T13:54:37;0.93;;;0.88;;
47790;SDS011;33547;49.044;1.156;2022-11-15T13:57:10;1.33;;;1.05;;
47790;SDS011;33547;49.044;1.156;2022-11-15T13:59:51;1.92;;;1.10;;
47790;SDS011;33547;49.044;1.156;2022-11-15T14:02:27;0.75;;;0.75;;
47790;SDS011;33547;49.044;1.156;2022-11-15T14:10:32;2.03;;;0.93;;
47790;SDS011;33547;49.044;1.156;2022-11-15T14:13:01;1.60;;;0.80;;
47790;SDS011;33547;49.044;1.156;2022-11-15T14:18:00;2.05;;;0.80;;
47790;SDS011;33547;49.044;1.156;2022-11-15T14:20:28;1.02;;;0.90;;
47790;SDS011;33547;49.044;1.156;2022-11-15T14:23:45;1.92;;;0.90;;
47790;SDS011;33547;49.044;1.156;2022-11-15T14:25:55;1.17;;;0.73;;
47790;SDS011;33547;49.044;1.156;2022-11-15T14:30:50;3.38;;;0.70;;
47790;SDS011;33547;49.044;1.156;2022-11-15T14:36:16;1.65;;;0.80;;
47790;SDS011;33547;49.044;1.156;2022-11-15T14:38:43;1.48;;;1.00;;
47790;SDS011;33547;49.044;1.156;2022-11-15T14:41:20;1.17;;;0.80;;
47790;SDS011;33547;49.044;1.156;2022-11-15T14:43:49;1.23;;;0.80;;
47790;SDS011;33547;49.044;1.156;2022-11-15T14:46:16;0.77;;;0.57;;
47790;SDS011;33547;49.044;1.156;2022-11-15T14:48:42;1.33;;;0.73;;
47790;SDS011;33547;49.044;1.156;2022-11-15T14:51:17;1.50;;;0.70;;
47790;SDS011;33547;49.044;1.156;2022-11-15T14:53:44;1.25;;;0.95;;
47790;SDS011;33547;49.044;1.156;2022-11-15T14:56:11;0.80;;;0.80;;
47790;SDS011;33547;49.044;1.156;2022-11-15T14:58:38;0.80;;;0.77;;
47790;SDS011;33547;49.044;1.156;2022-11-15T15:01:24;0.85;;;0.70;;
47790;SDS011;33547;49.044;1.156;2022-11-15T15:03:52;0.65;;;0.65;;
47790;SDS011;33547;49.044;1.156;2022-11-15T15:06:23;1.95;;;1.08;;
47790;SDS011;33547;49.044;1.156;2022-11-15T15:08:49;1.67;;;0.77;;
47790;SDS011;33547;49.044;1.156;2022-11-15T15:11:34;0.60;;;0.60;;
47790;SDS011;33547;49.044;1.156;2022-11-15T15:13:59;0.63;;;0.63;;
47790;SDS011;33547;49.044;1.156;2022-11-15T15:16:26;0.70;;;0.70;;
47790;SDS011;33547;49.044;1.156;2022-11-15T15:18:52;1.70;;;0.70;;
47790;SDS011;33547;49.044;1.156;2022-11-15T15:23:52;2.00;;;0.80;;
47790;SDS011;33547;49.044;1.156;2022-11-15T15:26:22;0.75;;;0.75;;
47790;SDS011;33547;49.044;1.156;2022-11-15T15:28:49;1.85;;;0.80;;
47790;SDS011;33547;49.044;1.156;2022-11-15T15:31:16;3.75;;;1.17;;
47790;SDS011;33547;49.044;1.156;2022-11-15T15:33:43;2.05;;;0.85;;
47790;SDS011;33547;49.044;1.156;2022-11-15T15:36:12;0.80;;;0.60;;
47790;SDS011;33547;49.044;1.156;2022-11-15T15:38:44;1.65;;;0.90;;
47790;SDS011;33547;49.044;1.156;2022-11-15T15:41:12;0.60;;;0.60;;
47790;SDS011;33547;49.044;1.156;2022-11-15T15:43:39;0.80;;;0.80;;
47790;SDS011;33547;49.044;1.156;2022-11-15T15:46:12;1.98;;;0.93;;
47790;SDS011;33547;49.044;1.156;2022-11-15T15:48:41;0.82;;;0.80;;
47790;SDS011;33547;49.044;1.156;2022-11-15T15:51:07;1.30;;;1.10;;
47790;SDS011;33547;49.044;1.156;2022-11-15T15:53:33;0.90;;;0.80;;
47790;SDS011;33547;49.044;1.156;2022-11-15T15:55:59;0.70;;;0.70;;
47790;SDS011;33547;49.044;1.156;2022-11-15T15:58:25;0.90;;;0.90;;
47790;SDS011;33547;49.044;1.156;2022-11-15T16:00:51;0.80;;;0.80;;
47790;SDS011;33547;49.044;1.156;2022-11-15T16:03:17;0.90;;;0.60;;
47790;SDS011;33547;49.044;1.156;2022-11-15T16:05:42;1.38;;;0.77;;
47790;SDS011;33547;49.044;1.156;2022-11-15T16:08:22;1.20;;;0.90;;
47790;SDS011;33547;49.044;1.156;2022-11-15T16:10:49;1.00;;;0.90;;
47790;SDS011;33547;49.044;1.156;2022-11-15T16:13:15;1.20;;;0.75;;
47790;SDS011;33547;49.044;1.156;2022-11-15T16:15:42;1.13;;;1.00;;
47790;SDS011;33547;49.044;1.156;2022-11-15T16:18:12;0.70;;;0.70;;
47790;SDS011;33547;49.044;1.156;2022-11-15T16:20:42;0.75;;;0.75;;
47790;SDS011;33547;49.044;1.156;2022-11-15T16:23:10;0.70;;;0.70;;
47790;SDS011;33547;49.044;1.156;2022-11-15T16:30:47;1.55;;;0.93;;
47790;SDS011;33547;49.044;1.156;2022-11-15T16:33:13;0.80;;;0.80;;
47790;SDS011;33547;49.044;1.156;2022-11-15T16:35:39;1.05;;;0.70;;
47790;SDS011;33547;49.044;1.156;2022-11-15T16:38:06;1.10;;;0.90;;
47790;SDS011;33547;49.044;1.156;2022-11-15T16:40:39;0.80;;;0.80;;
47790;SDS011;33547;49.044;1.156;2022-11-15T16:43:05;1.17;;;0.85;;
47790;SDS011;33547;49.044;1.156;2022-11-15T16:45:31;1.10;;;0.88;;
47790;SDS011;33547;49.044;1.156;2022-11-15T16:47:59;0.55;;;0.55;;
47790;SDS011;33547;49.044;1.156;2022-11-15T16:50:25;1.15;;;0.80;;
47790;SDS011;33547;49.044;1.156;2022-11-15T16:52:55;2.00;;;1.00;;
47790;SDS011;33547;49.044;1.156;2022-11-15T16:55:24;1.02;;;1.02;;
47790;SDS011;33547;49.044;1.156;2022-11-15T16:57:53;0.80;;;0.77;;
47790;SDS011;33547;49.044;1.156;2022-11-15T17:00:22;1.33;;;0.77;;
47790;SDS011;33547;49.044;1.156;2022-11-15T17:02:48;1.05;;;0.70;;
47790;SDS011;33547;49.044;1.156;2022-11-15T17:05:16;1.65;;;1.10;;
47790;SDS011;33547;49.044;1.156;2022-11-15T17:07:48;2.25;;;0.95;;
47790;SDS011;33547;49.044;1.156;2022-11-15T17:10:18;1.10;;;0.80;;
47790;SDS011;33547;49.044;1.156;2022-11-15T17:12:46;1.35;;;1.05;;
47790;SDS011;33547;49.044;1.156;2022-11-15T17:15:12;1.60;;;0.77;;
47790;SDS011;33547;49.044;1.156;2022-11-15T17:17:38;0.70;;;0.70;;
47790;SDS011;33547;49.044;1.156;2022-11-15T17:20:06;0.68;;;0.68;;
47790;SDS011;33547;49.044;1.156;2022-11-15T17:22:40;0.98;;;0.98;;
47790;SDS011;33547;49.044;1.156;2022-11-15T17:25:06;2.15;;;1.23;;
47790;SDS011;33547;49.044;1.156;2022-11-15T17:27:33;1.95;;;1.27;;
47790;SDS011;33547;49.044;1.156;2022-11-15T17:29:59;0.82;;;0.80;;
47790;SDS011;33547;49.044;1.156;2022-11-15T17:32:24;1.42;;;1.25;;
47790;SDS011;33547;49.044;1.156;2022-11-15T17:34:50;1.20;;;1.00;;
47790;SDS011;33547;49.044;1.156;2022-11-15T17:37:16;0.82;;;0.77;;
47790;SDS011;33547;49.044;1.156;2022-11-15T17:39:42;1.33;;;1.15;;
47790;SDS011;33547;49.044;1.156;2022-11-15T17:42:07;1.05;;;1.05;;
47790;SDS011;33547;49.044;1.156;2022-11-15T17:44:33;1.08;;;0.93;;